createdAt,value
2022-10-01T00:00:11.708Z,5.5
2022-10-01T00:03:12.159Z,5.5
2022-10-01T00:06:11.688Z,5.4
2022-10-01T00:09:11.756Z,5.4
2022-10-01T00:12:11.870Z,5.5
2022-10-01T00:15:22.077Z,5.4
2022-10-01T00:18:11.687Z,5.4
2022-10-01T00:21:12.173Z,5.5
2022-10-01T00:24:11.734Z,5.5
2022-10-01T00:27:11.704Z,5.5
2022-10-01T00:30:11.754Z,5.5
2022-10-01T00:33:11.650Z,5.6
2022-10-01T00:36:11.756Z,5.7
2022-10-01T00:39:12.057Z,5.9
2022-10-01T00:42:11.675Z,5.9
2022-10-01T00:45:11.738Z,6.1
2022-10-01T00:48:11.813Z,6.1
2022-10-01T00:51:11.660Z,6.2
2022-10-01T00:54:11.767Z,6.2
2022-10-01T00:57:11.649Z,6.4
2022-10-01T01:00:11.699Z,6.4
2022-10-01T01:03:11.692Z,6.4
2022-10-01T01:06:11.686Z,6.5
2022-10-01T01:09:11.716Z,6.5
2022-10-01T01:12:11.648Z,6.5
2022-10-01T01:15:11.826Z,6.5
2022-10-01T01:18:11.696Z,6.6
2022-10-01T01:21:11.629Z,6.6
2022-10-01T01:24:11.662Z,6.6
2022-10-01T01:27:11.665Z,6.6
2022-10-01T01:30:11.684Z,6.6
2022-10-01T01:33:11.617Z,6.6
2022-10-01T01:36:11.694Z,6.9
2022-10-01T01:39:11.674Z,7.1
2022-10-01T01:42:11.691Z,7.5
2022-10-01T01:45:11.785Z,7.7
2022-10-01T01:48:11.700Z,8
2022-10-01T01:51:11.736Z,8
2022-10-01T01:54:11.655Z,8.3
2022-10-01T01:57:11.704Z,8.4
2022-10-01T02:00:11.675Z,8.5
2022-10-01T02:03:11.770Z,8.5
2022-10-01T02:06:11.683Z,8.6
2022-10-01T02:09:11.729Z,8.8
2022-10-01T02:12:11.918Z,8.8
2022-10-01T02:15:11.752Z,8.8
2022-10-01T02:18:11.707Z,8.8
2022-10-01T02:21:11.683Z,8.8
2022-10-01T02:24:11.699Z,8.9
2022-10-01T02:27:11.657Z,8.9
2022-10-01T02:30:11.727Z,8.9
2022-10-01T02:33:11.702Z,8.9
2022-10-01T02:36:11.708Z,8.9
2022-10-01T02:39:11.680Z,8.9
2022-10-01T02:42:11.698Z,8.9
2022-10-01T02:45:11.642Z,8.8
2022-10-01T02:48:11.637Z,8.8
2022-10-01T02:51:11.619Z,8.8
2022-10-01T02:54:11.744Z,8.8
2022-10-01T02:57:11.666Z,8.9
2022-10-01T03:00:11.718Z,9
2022-10-01T03:03:11.892Z,9.3
2022-10-01T03:06:11.731Z,9.4
2022-10-01T03:09:11.711Z,9.5
2022-10-01T03:12:11.714Z,9.5
2022-10-01T03:15:11.694Z,9.8
2022-10-01T03:18:11.756Z,9.9
2022-10-01T03:21:11.692Z,10
2022-10-01T03:24:11.713Z,10.1
2022-10-01T03:27:11.677Z,10.1
2022-10-01T03:30:11.744Z,10.4
2022-10-01T03:33:11.722Z,10.5
2022-10-01T03:36:11.695Z,10.6
2022-10-01T03:39:11.701Z,10.8
2022-10-01T03:42:11.745Z,10.8
2022-10-01T03:45:11.665Z,10.9
2022-10-01T03:48:11.663Z,10.9
2022-10-01T03:51:11.720Z,10.8
2022-10-01T03:54:11.684Z,10.9
2022-10-01T03:57:11.670Z,11
2022-10-01T04:00:11.803Z,11
2022-10-01T04:03:12.372Z,11.1
2022-10-01T04:06:11.647Z,11.3
2022-10-01T04:09:11.690Z,11.4
2022-10-01T04:12:11.692Z,11.4
2022-10-01T04:15:11.685Z,11.5
2022-10-01T04:18:11.710Z,11.5
2022-10-01T04:21:11.666Z,11.5
2022-10-01T04:24:11.649Z,11.5
2022-10-01T04:27:11.638Z,11.6
2022-10-01T04:30:11.721Z,11.6
2022-10-01T04:33:11.711Z,11.6
2022-10-01T04:36:11.653Z,11.8
2022-10-01T04:39:14.050Z,11.8
2022-10-01T04:42:11.692Z,11.8
2022-10-01T04:45:11.765Z,11.8
2022-10-01T04:48:11.750Z,11.9
2022-10-01T04:51:11.684Z,11.9
2022-10-01T04:54:11.841Z,11.9
2022-10-01T04:57:11.638Z,11.9
2022-10-01T05:00:11.760Z,11.9
2022-10-01T05:03:11.626Z,11.9
2022-10-01T05:06:11.709Z,11.9
2022-10-01T05:09:11.710Z,12
2022-10-01T05:12:11.718Z,12
2022-10-01T05:15:11.745Z,12.1
2022-10-01T05:18:11.690Z,12.1
2022-10-01T05:21:11.767Z,12.2
2022-10-01T05:24:12.315Z,12.2
2022-10-01T05:27:11.723Z,12.2
2022-10-01T05:30:11.702Z,12.2
2022-10-01T05:33:11.781Z,12.1
2022-10-01T05:36:11.768Z,12
2022-10-01T05:39:11.643Z,12
2022-10-01T05:42:17.544Z,11.9
2022-10-01T05:45:11.776Z,11.8
2022-10-01T05:48:11.764Z,11.8
2022-10-01T05:51:11.702Z,11.6
2022-10-01T05:54:11.749Z,11.5
2022-10-01T05:57:11.694Z,11.5
2022-10-01T06:00:11.804Z,11.3
2022-10-01T06:03:12.680Z,11.1
2022-10-01T06:06:11.740Z,11
2022-10-01T06:09:11.745Z,10.9
2022-10-01T06:12:13.643Z,10.8
2022-10-01T06:15:11.706Z,10.6
2022-10-01T06:18:11.919Z,10.5
2022-10-01T06:21:11.694Z,10.5
2022-10-01T06:24:11.748Z,10.4
2022-10-01T06:27:11.766Z,10.4
2022-10-01T06:30:11.702Z,10.4
2022-10-01T06:33:11.758Z,10.3
2022-10-01T06:36:11.736Z,10.3
2022-10-01T06:39:11.789Z,10.3
2022-10-01T06:42:11.742Z,10.3
2022-10-01T06:45:11.735Z,10.3
2022-10-01T06:48:11.752Z,10.4
2022-10-01T06:51:11.692Z,10.4
2022-10-01T06:54:11.709Z,10.4
2022-10-01T06:57:11.840Z,10.4
2022-10-01T07:00:11.806Z,10.4
2022-10-01T07:03:11.818Z,10.4
2022-10-01T07:06:11.711Z,10.4
2022-10-01T07:09:11.708Z,10.5
2022-10-01T07:12:11.817Z,10.5
2022-10-01T07:15:11.685Z,10.5
2022-10-01T07:18:11.971Z,10.5
2022-10-01T07:21:11.727Z,10.6
2022-10-01T07:24:11.696Z,10.6
2022-10-01T07:27:18.481Z,10.8
2022-10-01T07:30:11.698Z,10.8
2022-10-01T07:33:11.679Z,10.8
2022-10-01T07:36:11.769Z,10.9
2022-10-01T07:39:11.802Z,10.9
2022-10-01T07:42:11.705Z,11
2022-10-01T07:45:11.750Z,11
2022-10-01T07:48:11.773Z,11
2022-10-01T07:51:11.711Z,11
2022-10-01T07:54:11.783Z,10.9
2022-10-01T07:57:11.771Z,11
2022-10-01T08:00:11.805Z,11
2022-10-01T08:03:11.726Z,11.1
2022-10-01T08:06:11.752Z,11.1
2022-10-01T08:09:11.729Z,11.3
2022-10-01T08:12:11.698Z,11.3
2022-10-01T08:15:11.742Z,11.3
2022-10-01T08:18:11.813Z,11.3
2022-10-01T08:21:11.800Z,11.3
2022-10-01T08:24:11.701Z,11.4
2022-10-01T08:27:11.759Z,11.5
2022-10-01T08:30:11.813Z,11.5
2022-10-01T08:33:11.738Z,11.6
2022-10-01T08:36:11.817Z,11.9
2022-10-01T08:39:11.746Z,12
2022-10-01T08:42:11.733Z,12.2
2022-10-01T08:45:12.008Z,12.5
2022-10-01T08:48:11.745Z,12.6
2022-10-01T08:51:11.693Z,12.8
2022-10-01T08:54:11.779Z,12.9
2022-10-01T08:57:11.682Z,13
2022-10-01T09:00:11.894Z,13.6
2022-10-01T09:03:11.670Z,14.3
2022-10-01T09:06:11.706Z,14.6
2022-10-01T09:09:11.705Z,15.1
2022-10-01T09:12:11.772Z,15.6
2022-10-01T09:15:12.019Z,16
2022-10-01T09:18:11.773Z,16.4
2022-10-01T09:21:11.736Z,16.8
2022-10-01T09:24:11.712Z,16.9
2022-10-01T09:27:11.801Z,16.4
2022-10-01T09:30:11.775Z,16
2022-10-01T09:33:11.838Z,15.8
2022-10-01T09:36:11.772Z,16.1
2022-10-01T09:39:11.894Z,16.8
2022-10-01T09:42:11.760Z,17.5
2022-10-01T09:45:11.751Z,18.3
2022-10-01T09:48:11.786Z,18.6
2022-10-01T09:51:11.740Z,19.1
2022-10-01T09:54:11.729Z,19.3
2022-10-01T09:57:11.736Z,19.3
2022-10-01T10:00:11.785Z,19.6
2022-10-01T10:03:12.863Z,20.4
2022-10-01T10:06:11.767Z,22.1
2022-10-01T10:09:11.804Z,23.5
2022-10-01T10:12:11.703Z,24.7
2022-10-01T10:15:12.076Z,26.5
2022-10-01T10:18:11.760Z,27.1
2022-10-01T10:21:11.794Z,28.6
2022-10-01T10:24:11.768Z,30.8
2022-10-01T10:27:11.836Z,32
2022-10-01T10:30:11.989Z,32.2
2022-10-01T10:33:11.717Z,31.9
2022-10-01T10:36:11.779Z,33.2
2022-10-01T10:39:11.786Z,33.6
2022-10-01T10:42:11.759Z,35
2022-10-01T10:45:12.114Z,32.4
2022-10-01T10:48:11.749Z,29.6
2022-10-01T10:51:11.831Z,27.6
2022-10-01T10:54:11.843Z,27.2
2022-10-01T10:57:11.696Z,28.4
2022-10-01T11:00:11.855Z,28.7
2022-10-01T11:03:11.739Z,26.8
2022-10-01T11:06:11.773Z,25.5
2022-10-01T11:09:11.816Z,24.5
2022-10-01T11:12:11.878Z,24.9
2022-10-01T11:15:11.727Z,27.9
2022-10-01T11:18:11.766Z,27.9
2022-10-01T11:21:11.715Z,28.6
2022-10-01T11:24:11.757Z,30.6
2022-10-01T11:27:11.720Z,28.5
2022-10-01T11:30:11.854Z,29.4
2022-10-01T11:33:11.747Z,29.5
2022-10-01T11:36:11.851Z,31.2
2022-10-01T11:39:11.724Z,32.4
2022-10-01T11:42:11.730Z,35.5
2022-10-01T11:45:12.240Z,35.2
2022-10-01T11:48:11.745Z,33.1
2022-10-01T11:51:11.787Z,31.5
2022-10-01T11:54:11.733Z,30
2022-10-01T11:57:11.698Z,28.5
2022-10-01T12:00:11.924Z,28.3
2022-10-01T12:03:11.722Z,27
2022-10-01T12:06:11.771Z,25.8
2022-10-01T12:09:11.697Z,24.4
2022-10-01T12:12:11.731Z,23.9
2022-10-01T12:15:18.144Z,23.6
2022-10-01T12:18:11.896Z,23
2022-10-01T12:21:11.748Z,23.3
2022-10-01T12:24:11.721Z,22.4
2022-10-01T12:27:11.714Z,24.5
2022-10-01T12:30:11.838Z,28.9
2022-10-01T12:33:11.679Z,31.6
2022-10-01T12:36:11.832Z,33.2
2022-10-01T12:39:11.848Z,33.9
2022-10-01T12:42:11.693Z,34.6
2022-10-01T12:45:11.759Z,35.5
2022-10-01T12:48:11.705Z,33.1
2022-10-01T12:51:11.774Z,29.6
2022-10-01T12:54:17.094Z,28.9
2022-10-01T12:57:11.725Z,28.5
2022-10-01T13:00:11.949Z,28.6
2022-10-01T13:03:11.758Z,28.6
2022-10-01T13:06:11.773Z,31.2
2022-10-01T13:09:11.720Z,32.7
2022-10-01T13:12:11.788Z,34.1
2022-10-01T13:15:11.723Z,35
2022-10-01T13:18:11.749Z,35.1
2022-10-01T13:21:11.744Z,34.2
2022-10-01T13:24:11.802Z,34
2022-10-01T13:27:11.708Z,33.7
2022-10-01T13:30:11.974Z,34.1
2022-10-01T13:33:11.747Z,34.2
2022-10-01T13:36:11.770Z,34.1
2022-10-01T13:39:11.781Z,33.9
2022-10-01T13:42:11.766Z,33.6
2022-10-01T13:45:17.097Z,34.9
2022-10-01T13:48:11.718Z,35.4
2022-10-01T13:51:11.793Z,35
2022-10-01T13:54:11.695Z,34.4
2022-10-01T13:57:11.656Z,34.6
2022-10-01T14:00:11.922Z,33.6
2022-10-01T14:03:12.333Z,30.6
2022-10-01T14:06:11.743Z,31.8
2022-10-01T14:09:11.766Z,32.6
2022-10-01T14:12:11.786Z,33.6
2022-10-01T14:15:11.889Z,34.4
2022-10-01T14:18:11.755Z,34.1
2022-10-01T14:21:11.743Z,34.1
2022-10-01T14:24:11.775Z,32
2022-10-01T14:27:11.752Z,29
2022-10-01T14:30:11.743Z,28.4
2022-10-01T14:33:11.746Z,26.2
2022-10-01T14:36:11.730Z,24.5
2022-10-01T14:39:11.700Z,23.4
2022-10-01T14:42:20.751Z,22.6
2022-10-01T14:45:11.670Z,21.9
2022-10-01T14:48:11.759Z,21.4
2022-10-01T14:51:11.700Z,21.4
2022-10-01T14:54:11.770Z,21.5
2022-10-01T14:57:13.910Z,21.2
2022-10-01T15:00:11.971Z,20.4
2022-10-01T15:03:11.805Z,18.4
2022-10-01T15:06:11.768Z,16.3
2022-10-01T15:09:11.778Z,14.7
2022-10-01T15:12:11.700Z,13.9
2022-10-01T15:15:11.685Z,13.3
2022-10-01T15:18:11.736Z,12.9
2022-10-01T15:21:11.690Z,12.6
2022-10-01T15:24:11.762Z,12.4
2022-10-01T15:27:11.726Z,12.1
2022-10-01T15:30:11.976Z,12
2022-10-01T15:33:11.705Z,12.1
2022-10-01T15:36:11.781Z,12.1
2022-10-01T15:39:11.869Z,12.1
2022-10-01T15:42:11.746Z,11.9
2022-10-01T15:45:11.728Z,11.8
2022-10-01T15:48:11.747Z,11.8
2022-10-01T15:51:11.748Z,11.8
2022-10-01T15:54:11.736Z,11.9
2022-10-01T15:57:11.834Z,12.1
2022-10-01T16:00:11.700Z,12.8
2022-10-01T16:03:11.770Z,13.3
2022-10-01T16:06:11.751Z,13.9
2022-10-01T16:09:11.719Z,15
2022-10-01T16:12:11.685Z,16
2022-10-01T16:15:11.764Z,15
2022-10-01T16:18:11.733Z,16.1
2022-10-01T16:21:11.975Z,16.3
2022-10-01T16:24:11.698Z,15.9
2022-10-01T16:27:11.719Z,15
2022-10-01T16:30:16.952Z,14.5
2022-10-01T16:33:11.669Z,13.4
2022-10-01T16:36:11.680Z,12.5
2022-10-01T16:39:11.745Z,11.9
2022-10-01T16:42:35.129Z,11.5
2022-10-01T16:45:11.739Z,11.1
2022-10-01T16:48:11.773Z,10.9
2022-10-01T16:51:11.754Z,10.8
2022-10-01T16:54:11.797Z,10.6
2022-10-01T16:57:11.743Z,10.5
2022-10-01T17:00:11.736Z,10.4
2022-10-01T17:03:11.651Z,10.3
2022-10-01T17:06:11.822Z,10.1
2022-10-01T17:09:11.660Z,10.1
2022-10-01T17:12:11.641Z,10
2022-10-01T17:15:11.741Z,10
2022-10-01T17:18:11.652Z,10
2022-10-01T17:21:11.820Z,10
2022-10-01T17:24:11.821Z,10.1
2022-10-01T17:27:11.681Z,10.1
2022-10-01T17:30:11.761Z,10.1
2022-10-01T17:33:11.659Z,10.3
2022-10-01T17:36:11.672Z,10.3
2022-10-01T17:39:11.635Z,10.4
2022-10-01T17:42:11.671Z,10.4
2022-10-01T17:45:11.696Z,10.5
2022-10-01T17:48:11.727Z,10.5
2022-10-01T17:51:11.828Z,10.5
2022-10-01T17:54:11.681Z,10.6
2022-10-01T17:57:11.685Z,10.6
2022-10-01T18:00:11.896Z,10.6
2022-10-01T18:03:12.287Z,10.6
2022-10-01T18:06:11.642Z,10.6
2022-10-01T18:09:11.711Z,10.8
2022-10-01T18:12:11.723Z,10.8
2022-10-01T18:15:11.700Z,10.9
2022-10-01T18:21:11.738Z,10.9
2022-10-01T18:24:16.070Z,10.9
2022-10-01T18:27:11.722Z,10.8
2022-10-01T18:30:11.673Z,10.8
2022-10-01T18:33:11.736Z,10.8
2022-10-01T18:36:11.713Z,10.8
2022-10-01T18:39:11.759Z,10.8
2022-10-01T18:42:11.752Z,10.8
2022-10-01T18:45:11.698Z,10.8
2022-10-01T18:48:11.710Z,10.6
2022-10-01T18:51:11.697Z,10.5
2022-10-01T18:54:11.916Z,10.5
2022-10-01T18:57:11.694Z,10.5
2022-10-01T19:00:11.716Z,10.5
2022-10-01T19:03:11.712Z,10.5
2022-10-01T19:06:11.696Z,10.5
2022-10-01T19:09:11.732Z,10.5
2022-10-01T19:12:11.671Z,10.6
2022-10-01T19:15:11.731Z,10.8
2022-10-01T19:18:11.711Z,10.8
2022-10-01T19:21:11.742Z,10.8
2022-10-01T19:24:11.718Z,10.9
2022-10-01T19:27:11.813Z,10.9
2022-10-01T19:30:11.684Z,10.9
2022-10-01T19:33:11.709Z,11
2022-10-01T19:36:13.514Z,10.9
2022-10-01T19:39:11.745Z,10.9
2022-10-01T19:42:11.689Z,10.8
2022-10-01T19:45:11.710Z,10.6
2022-10-01T19:48:11.717Z,10.4
2022-10-01T19:51:11.669Z,10.3
2022-10-01T19:54:11.739Z,10.3
2022-10-01T19:57:11.694Z,10.1
2022-10-01T20:00:11.750Z,10.1
2022-10-01T20:03:11.709Z,10.1
2022-10-01T20:06:11.681Z,10.1
2022-10-01T20:09:11.702Z,10
2022-10-01T20:12:11.773Z,10
2022-10-01T20:15:11.715Z,10
2022-10-01T20:18:11.699Z,10
2022-10-01T20:21:11.711Z,9.9
2022-10-01T20:24:11.700Z,9.9
2022-10-01T20:27:11.711Z,9.9
2022-10-01T20:30:11.759Z,9.9
2022-10-01T20:33:11.735Z,10
2022-10-01T20:36:11.663Z,10
2022-10-01T20:39:11.719Z,10
2022-10-01T20:42:11.706Z,10
2022-10-01T20:45:11.858Z,10
2022-10-01T20:48:11.722Z,10
2022-10-01T20:51:11.692Z,10
2022-10-01T20:54:11.694Z,10
2022-10-01T20:57:11.706Z,10
2022-10-01T21:00:11.767Z,10
2022-10-01T21:03:11.690Z,10
2022-10-01T21:06:11.903Z,10
2022-10-01T21:09:11.626Z,9.9
2022-10-01T21:12:11.806Z,9.9
2022-10-01T21:15:11.663Z,9.9
2022-10-01T21:18:11.714Z,9.9
2022-10-01T21:21:11.749Z,9.9
2022-10-01T21:24:11.715Z,9.9
2022-10-01T21:27:11.694Z,9.9
2022-10-01T21:30:11.735Z,9.9
2022-10-01T21:33:13.792Z,9.9
2022-10-01T21:36:12.470Z,9.9
2022-10-01T21:39:11.631Z,9.9
2022-10-01T21:42:11.788Z,9.9
2022-10-01T21:45:11.710Z,9.9
2022-10-01T21:48:11.677Z,9.9
2022-10-01T21:51:11.682Z,9.9
2022-10-01T21:54:11.700Z,10
2022-10-01T21:57:11.650Z,10
2022-10-01T22:00:13.152Z,10
2022-10-01T22:03:11.683Z,10
2022-10-01T22:06:11.715Z,10
2022-10-01T22:09:11.697Z,9.9
2022-10-01T22:12:11.667Z,9.9
2022-10-01T22:15:11.674Z,9.9
2022-10-01T22:18:11.759Z,9.9
2022-10-01T22:21:11.649Z,9.9
2022-10-01T22:24:11.681Z,9.9
2022-10-01T22:27:11.704Z,9.9
2022-10-01T22:30:11.793Z,9.9
2022-10-01T22:33:11.687Z,9.9
2022-10-01T22:36:11.664Z,9.9
2022-10-01T22:39:11.700Z,9.8
2022-10-01T22:42:11.717Z,9.8
2022-10-01T22:45:11.639Z,9.8
2022-10-01T22:48:11.713Z,9.8
2022-10-01T22:51:11.644Z,9.8
2022-10-01T22:54:11.710Z,9.8
2022-10-01T22:57:11.641Z,9.8
2022-10-01T23:00:11.801Z,9.8
2022-10-01T23:03:11.674Z,9.8
2022-10-01T23:06:11.696Z,9.8
2022-10-01T23:09:11.761Z,9.8
2022-10-01T23:12:11.747Z,9.8
2022-10-01T23:15:11.686Z,9.8
2022-10-01T23:18:11.689Z,9.8
2022-10-01T23:21:11.650Z,9.8
2022-10-01T23:24:11.644Z,9.8
2022-10-01T23:27:11.779Z,9.8
2022-10-01T23:30:11.882Z,9.8
2022-10-01T23:33:11.724Z,9.6
2022-10-01T23:36:11.756Z,9.6
2022-10-01T23:39:11.730Z,9.6
2022-10-01T23:42:11.696Z,9.6
2022-10-01T23:45:11.663Z,9.6
2022-10-01T23:48:11.759Z,9.6
2022-10-01T23:51:11.750Z,9.6
2022-10-01T23:54:11.796Z,9.6
2022-10-01T23:57:11.694Z,9.6
